Time;durP1;ratioP1;P1;durP2;ratioP2;P2;SDS_P1;SDS_P2;PMS_P1;PMS_P2;Temp;Humidity;BMP_temperature;BMP_pressure;BME280_temperature;BME280_humidity;BME280_pressure;Samples;Min_cycle;Max_cycle;Signal;HPM_P1;HPM_P2
2021/08/11 00:02:50;;;;;;;15.93;10.90;;;;;;;14.78;90.95;101631.88;10169883;28;20078;-65
2021/08/11 00:07:47;;;;;;;14.50;10.57;;;;;;;14.76;91.32;101631.44;10162521;28;20062;-67
2021/08/11 00:12:44;;;;;;;14.90;11.15;;;;;;;14.77;90.69;101633.03;10128624;28;20082;-67
2021/08/11 00:17:40;;;;;;;16.05;11.05;;;;;;;14.75;91.18;101629.00;10163161;28;20085;-66
2021/08/11 00:22:37;;;;;;;13.65;10.32;;;;;;;14.70;90.90;101624.44;10175752;28;20049;-66
2021/08/11 00:27:33;;;;;;;14.52;10.43;;;;;;;14.59;91.22;101643.22;10150552;28;20562;-65
2021/08/11 00:32:30;;;;;;;17.83;10.38;;;;;;;14.58;90.81;101646.31;10171020;28;20073;-67
2021/08/11 00:37:27;;;;;;;16.15;10.25;;;;;;;14.60;91.17;101650.38;10178258;28;20482;-65
2021/08/11 00:42:24;;;;;;;12.50;9.50;;;;;;;14.60;90.83;101638.56;10171158;28;20105;-66
2021/08/11 00:47:25;;;;;;;17.27;9.55;;;;;;;14.57;91.09;101636.41;10168511;28;20126;-67
2021/08/11 00:52:22;;;;;;;15.45;10.80;;;;;;;14.57;90.77;101628.16;10163770;28;20521;-65
2021/08/11 00:57:20;;;;;;;14.32;10.27;;;;;;;14.56;90.27;101638.38;10164311;28;20100;-67
2021/08/11 01:02:26;;;;;;;18.45;10.63;;;;;;;14.52;90.75;101637.34;10159169;28;20085;-66
2021/08/11 01:07:26;;;;;;;15.27;10.18;;;;;;;14.43;90.79;101644.78;10166792;28;20463;-66
2021/08/11 01:12:24;;;;;;;12.55;10.02;;;;;;;14.42;90.54;101646.75;10142234;28;20504;-65
2021/08/11 01:17:25;;;;;;;17.15;10.55;;;;;;;14.42;90.42;101641.22;10165760;28;20077;-65
2021/08/11 01:22:35;;;;;;;17.52;11.23;;;;;;;14.40;90.25;101640.75;10164454;28;20065;-67
2021/08/11 01:27:53;;;;;;;15.40;9.63;;;;;;;14.39;90.67;101632.81;10174606;28;20132;-66
2021/08/11 01:33:08;;;;;;;14.68;10.43;;;;;;;14.39;90.42;101630.88;10157436;28;20099;-66
2021/08/11 01:38:09;;;;;;;14.25;10.88;;;;;;;14.31;90.38;101634.41;10137832;28;20144;-66
2021/08/11 01:43:06;;;;;;;16.38;11.38;;;;;;;14.26;90.40;101634.56;10176525;28;20046;-67
2021/08/11 01:48:15;;;;;;;16.08;11.27;;;;;;;14.25;90.63;101643.94;10173854;28;20119;-65
2021/08/11 01:53:18;;;;;;;17.98;12.05;;;;;;;14.16;90.91;101649.44;10181330;28;20077;-65
2021/08/11 01:58:15;;;;;;;14.73;11.90;;;;;;;14.18;90.73;101649.09;10171032;28;20089;-67
2021/08/11 02:03:11;;;;;;;16.30;12.27;;;;;;;14.16;90.95;101652.19;10170789;28;20051;-66
2021/08/11 02:08:09;;;;;;;18.67;12.75;;;;;;;14.11;90.91;101655.09;10183388;28;20069;-65
2021/08/11 02:13:06;;;;;;;16.20;12.27;;;;;;;14.14;91.17;101654.44;10175852;28;20133;-67
2021/08/11 02:18:03;;;;;;;15.98;12.25;;;;;;;14.16;90.86;101656.88;10178576;28;20053;-66
2021/08/11 02:23:00;;;;;;;21.92;14.63;;;;;;;14.11;90.38;101660.59;10162097;28;20081;-66
2021/08/11 02:28:02;;;;;;;21.35;13.75;;;;;;;14.10;90.46;101654.25;10156763;28;20078;-66
2021/08/11 02:33:09;;;;;;;18.98;13.70;;;;;;;14.04;90.71;101655.56;10150904;28;20049;-66
2021/08/11 02:38:11;;;;;;;19.27;14.10;;;;;;;14.03;90.60;101653.91;10124606;28;20058;-66
2021/08/11 02:43:21;;;;;;;20.33;14.30;;;;;;;14.02;91.22;101666.06;10148209;28;20070;-67
2021/08/11 02:48:19;;;;;;;24.90;15.57;;;;;;;14.01;91.14;101669.13;10159891;28;20420;-66
2021/08/11 02:53:20;;;;;;;20.13;14.48;;;;;;;13.97;91.05;101671.69;10189860;28;20077;-66
2021/08/11 02:58:19;;;;;;;20.15;14.38;;;;;;;13.97;91.30;101677.19;10147992;28;20567;-66
2021/08/11 03:03:16;;;;;;;19.70;13.80;;;;;;;13.99;90.97;101674.91;10179914;28;20051;-65
2021/08/11 03:08:15;;;;;;;20.92;14.45;;;;;;;13.95;90.67;101671.22;10189310;28;20054;-67
2021/08/11 03:13:14;;;;;;;22.83;13.98;;;;;;;13.94;91.20;101680.56;10159789;28;20050;-67
2021/08/11 03:18:10;;;;;;;20.30;14.98;;;;;;;13.93;91.07;101681.72;10169314;28;20475;-66
2021/08/11 03:23:07;;;;;;;21.48;14.85;;;;;;;13.87;91.26;101682.97;10139861;28;20050;-67
2021/08/11 03:28:04;;;;;;;22.50;15.93;;;;;;;13.87;91.28;101680.22;10165157;28;20054;-65
2021/08/11 03:33:00;;;;;;;21.77;15.57;;;;;;;13.85;91.59;101680.56;10194060;28;20053;-66
2021/08/11 03:37:56;;;;;;;22.08;15.05;;;;;;;13.88;91.09;101681.84;10162161;28;20045;-65
2021/08/11 03:42:53;;;;;;;24.45;15.65;;;;;;;13.84;90.96;101678.09;10195514;28;20077;-65
2021/08/11 03:47:50;;;;;;;26.67;16.50;;;;;;;13.85;91.03;101674.22;10134052;28;20050;-66
2021/08/11 03:52:47;;;;;;;28.23;16.73;;;;;;;13.86;90.89;101684.09;10165778;28;20105;-66
2021/08/11 03:57:44;;;;;;;26.95;17.63;;;;;;;13.83;91.06;101681.97;10127722;28;20074;-66
2021/08/11 04:02:40;;;;;;;25.50;17.63;;;;;;;13.81;91.02;101684.25;10197740;28;20092;-65
2021/08/11 04:07:37;;;;;;;24.80;17.15;;;;;;;13.79;90.87;101684.56;10160292;28;20046;-66
2021/08/11 04:12:34;;;;;;;27.08;16.63;;;;;;;13.75;91.27;101691.00;10184314;28;20050;-66
2021/08/11 04:17:30;;;;;;;25.42;16.52;;;;;;;13.72;91.06;101691.63;10155898;28;20512;-66
2021/08/11 04:22:27;;;;;;;26.50;17.50;;;;;;;13.68;91.10;101692.25;10173112;28;20051;-67
2021/08/11 04:27:24;;;;;;;25.23;15.75;;;;;;;13.68;91.43;101696.94;10153002;28;20077;-67
2021/08/11 04:32:20;;;;;;;21.23;15.40;;;;;;;13.68;91.19;101697.75;10137069;28;20046;-65
2021/08/11 04:37:17;;;;;;;23.35;17.27;;;;;;;13.64;91.34;101691.25;10152813;28;20054;-66
2021/08/11 04:42:13;;;;;;;22.25;16.67;;;;;;;13.66;91.69;101690.94;10186415;28;20116;-66
2021/08/11 04:47:10;;;;;;;25.33;17.85;;;;;;;13.74;91.54;101703.09;10193880;28;20460;-67
2021/08/11 04:52:06;;;;;;;25.73;17.73;;;;;;;13.77;92.20;101710.75;10183855;28;20073;-67
2021/08/11 04:57:03;;;;;;;26.13;17.00;;;;;;;13.82;91.75;101713.34;10162243;28;20051;-65
2021/08/11 05:01:59;;;;;;;22.33;16.83;;;;;;;13.85;91.77;101707.22;10171122;28;20061;-65
2021/08/11 05:06:56;;;;;;;23.45;18.00;;;;;;;13.87;91.71;101715.94;10145053;28;20098;-66
2021/08/11 05:11:53;;;;;;;25.33;16.65;;;;;;;13.90;91.82;101726.31;10164623;28;20041;-67
2021/08/11 05:16:49;;;;;;;24.52;18.27;;;;;;;13.94;92.18;101723.75;10153792;28;20678;-66
2021/08/11 05:21:46;;;;;;;25.75;19.15;;;;;;;13.95;92.14;101723.44;10140032;28;20051;-65
2021/08/11 05:26:45;;;;;;;27.17;18.27;;;;;;;13.95;92.08;101723.44;10153077;28;20050;-66
2021/08/11 05:31:41;;;;;;;21.67;16.52;;;;;;;14.02;92.47;101732.03;10169734;28;20041;-67
2021/08/11 05:36:38;;;;;;;26.00;17.30;;;;;;;14.03;92.39;101735.59;10185529;28;20478;-66
2021/08/11 05:41:34;;;;;;;26.75;16.33;;;;;;;14.07;92.81;101737.41;10172775;28;20042;-67
2021/08/11 05:46:31;;;;;;;24.60;16.75;;;;;;;14.10;92.23;101742.25;10183765;28;20046;-65
2021/08/11 05:51:28;;;;;;;25.05;16.23;;;;;;;14.14;92.17;101747.16;10165643;28;20042;-67
2021/08/11 05:56:24;;;;;;;26.50;16.60;;;;;;;14.16;92.46;101750.41;10182173;28;20508;-67
2021/08/11 06:01:22;;;;;;;21.45;15.48;;;;;;;14.23;92.71;101745.25;10147665;28;20088;-66
2021/08/11 06:06:19;;;;;;;21.33;15.40;;;;;;;14.30;92.63;101746.41;10180638;28;20708;-67
2021/08/11 06:11:15;;;;;;;21.60;14.90;;;;;;;14.38;92.32;101746.75;10143601;28;20046;-66
2021/08/11 06:16:12;;;;;;;23.23;15.43;;;;;;;14.42;92.28;101748.53;10175805;28;20080;-66
2021/08/11 06:21:09;;;;;;;21.92;15.25;;;;;;;14.49;91.98;101759.09;10185845;28;20062;-67
2021/08/11 06:26:05;;;;;;;23.30;14.60;;;;;;;14.56;91.72;101759.47;10166459;28;20043;-67
2021/08/11 06:31:02;;;;;;;21.75;14.05;;;;;;;14.62;92.33;101758.19;10161727;28;20070;-65
2021/08/11 06:35:58;;;;;;;21.27;14.77;;;;;;;14.66;92.07;101769.34;10160496;28;20050;-65
2021/08/11 06:40:55;;;;;;;23.73;13.52;;;;;;;14.75;91.27;101761.94;10155997;28;20042;-67
2021/08/11 06:45:51;;;;;;;18.65;12.30;;;;;;;14.82;90.70;101767.78;10182624;28;20073;-66
2021/08/11 06:50:48;;;;;;;17.55;11.68;;;;;;;14.89;91.15;101772.81;10143163;28;20082;-66
2021/08/11 06:55:45;;;;;;;18.52;11.95;;;;;;;14.95;90.62;101777.03;10180147;28;20043;-66
2021/08/11 07:00:41;;;;;;;14.88;10.75;;;;;;;15.03;90.18;101775.41;10130900;28;20087;-66
2021/08/11 07:05:38;;;;;;;15.48;10.07;;;;;;;15.12;89.05;101781.75;10173199;28;20413;-66
2021/08/11 07:10:35;;;;;;;16.48;8.98;;;;;;;15.20;88.20;101783.72;10199467;28;20042;-67
2021/08/11 07:15:32;;;;;;;16.02;9.68;;;;;;;15.32;87.98;101797.66;10151144;28;20127;-66
2021/08/11 07:20:31;;;;;;;13.50;8.35;;;;;;;15.40;86.68;101786.94;10194346;28;20065;-67
2021/08/11 07:25:28;;;;;;;14.05;8.50;;;;;;;15.49;86.73;101785.00;10169882;28;20066;-67
2021/08/11 07:30:24;;;;;;;12.43;8.18;;;;;;;15.62;86.21;101797.81;10155457;28;20055;-66
2021/08/11 07:35:21;;;;;;;12.77;7.47;;;;;;;15.73;84.60;101799.13;10169498;28;20082;-67
2021/08/11 07:40:18;;;;;;;11.50;6.40;;;;;;;15.82;83.95;101803.81;10153031;28;20085;-66
2021/08/11 07:45:16;;;;;;;12.63;7.05;;;;;;;15.95;84.13;101802.81;10165228;28;20074;-67
2021/08/11 07:50:15;;;;;;;9.50;5.63;;;;;;;16.09;82.60;101811.69;10130412;28;20413;-66
2021/08/11 07:55:15;;;;;;;10.65;6.20;;;;;;;16.14;81.80;101819.78;10161924;28;20062;-66
2021/08/11 08:00:16;;;;;;;16.33;6.07;;;;;;;16.19;81.49;101814.09;10180770;28;20054;-67
2021/08/11 08:05:12;;;;;;;9.60;5.28;;;;;;;16.23;81.00;101814.25;10180516;28;20105;-66
2021/08/11 08:10:10;;;;;;;11.85;5.95;;;;;;;16.22;79.61;101811.81;10173905;28;20046;-67
2021/08/11 08:15:07;;;;;;;11.32;5.53;;;;;;;16.39;79.66;101814.53;10164476;28;20129;-66
2021/08/11 08:20:05;;;;;;;14.00;5.40;;;;;;;16.58;78.37;101820.44;10169911;28;20046;-66
2021/08/11 08:25:02;;;;;;;12.13;5.53;;;;;;;16.75;78.42;101825.06;10182908;28;20053;-66
2021/08/11 08:29:59;;;;;;;10.13;5.28;;;;;;;16.90;77.74;101826.50;10175117;28;20074;-66
2021/08/11 08:34:55;;;;;;;10.50;4.90;;;;;;;16.92;77.43;101823.38;10158261;28;20050;-66
2021/08/11 08:39:52;;;;;;;10.23;5.07;;;;;;;16.90;76.33;101825.69;10172676;28;20164;-66
2021/08/11 08:44:48;;;;;;;8.90;4.65;;;;;;;17.07;76.86;101835.81;10143130;28;20070;-67
2021/08/11 08:49:46;;;;;;;10.82;5.38;;;;;;;17.27;75.74;101835.03;10157972;28;20509;-66
2021/08/11 08:54:44;;;;;;;9.68;4.97;;;;;;;17.44;75.26;101843.19;10139066;28;20108;-66
2021/08/11 08:59:43;;;;;;;11.70;5.03;;;;;;;17.65;74.08;101823.00;10138890;28;20105;-66
2021/08/11 09:04:40;;;;;;;10.65;5.85;;;;;;;17.64;73.44;101830.50;10135481;28;20648;-66
2021/08/11 09:09:38;;;;;;;8.82;4.07;;;;;;;17.52;73.08;101832.38;10166461;28;20076;-66
2021/08/11 09:14:36;;;;;;;9.80;4.30;;;;;;;17.29;72.55;101832.75;10194354;28;20096;-66
2021/08/11 09:19:44;;;;;;;8.98;3.95;;;;;;;17.40;72.58;101836.69;10150012;28;20515;-67
2021/08/11 09:24:42;;;;;;;10.13;4.72;;;;;;;17.65;72.06;101834.06;10170166;28;20110;-66
2021/08/11 09:29:38;;;;;;;10.90;3.83;;;;;;;17.91;70.92;101833.03;10140999;28;20081;-66
2021/08/11 09:34:44;;;;;;;9.07;4.20;;;;;;;18.24;71.62;101850.44;10161439;28;20074;-67
2021/08/11 09:39:41;;;;;;;7.32;3.13;;;;;;;18.46;63.55;101845.63;10166486;28;20042;-67
2021/08/11 09:44:39;;;;;;;7.53;3.35;;;;;;;18.69;64.45;101844.03;10134198;28;20504;-66
2021/08/11 09:49:35;;;;;;;8.55;3.20;;;;;;;18.95;64.10;101848.44;10145518;28;20039;-66
2021/08/11 09:54:32;;;;;;;8.68;4.20;;;;;;;18.86;64.53;101842.19;10131433;28;20112;-66
2021/08/11 09:59:29;;;;;;;7.57;3.08;;;;;;;18.84;62.94;101845.31;10146552;28;20066;-66
2021/08/11 10:04:40;;;;;;;6.72;3.42;;;;;;;19.14;61.85;101851.41;10189459;28;20046;-66
2021/08/11 10:09:36;;;;;;;9.38;3.00;;;;;;;19.77;59.89;101847.31;10142886;28;20507;-66
2021/08/11 10:14:37;;;;;;;5.53;3.05;;;;;;;20.01;57.46;101840.06;10194402;28;20092;-66
2021/08/11 10:19:34;;;;;;;6.05;2.72;;;;;;;20.52;54.79;101842.97;10140114;28;20072;-66
2021/08/11 10:24:35;;;;;;;6.85;3.00;;;;;;;20.81;55.33;101839.75;10174909;28;20129;-66
2021/08/11 10:29:33;;;;;;;8.35;3.00;;;;;;;20.96;56.10;101834.53;10165530;28;20080;-66
2021/08/11 10:34:30;;;;;;;9.75;3.08;;;;;;;20.60;55.78;101839.22;10175858;28;20050;-66
2021/08/11 10:39:29;;;;;;;6.30;3.13;;;;;;;20.14;58.35;101838.81;10163214;28;20046;-67
2021/08/11 10:44:25;;;;;;;6.13;2.85;;;;;;;20.31;56.97;101846.03;10166314;28;20513;-66
2021/08/11 10:49:24;;;;;;;6.40;2.72;;;;;;;20.69;58.78;101842.63;10161394;28;20501;-67
2021/08/11 10:54:21;;;;;;;5.70;2.97;;;;;;;21.53;57.20;101830.22;10156492;28;20104;-67
2021/08/11 10:59:28;;;;;;;6.35;3.22;;;;;;;21.54;56.33;101837.41;10162052;28;20086;-67
2021/08/11 11:04:46;;;;;;;4.72;2.38;;;;;;;22.22;54.01;101843.50;10188129;28;20397;-66
2021/08/11 11:09:45;;;;;;;4.63;2.47;;;;;;;23.51;51.41;101834.34;10120868;28;20081;-67
2021/08/11 11:14:47;;;;;;;6.55;2.80;;;;;;;22.50;51.33;101836.84;10147502;28;20412;-67
2021/08/11 11:20:02;;;;;;;4.13;1.95;;;;;;;21.76;52.85;101837.84;10125244;28;20054;-67
2021/08/11 11:24:59;;;;;;;5.32;2.03;;;;;;;21.95;53.62;101835.03;10140594;28;20082;-67
2021/08/11 11:29:55;;;;;;;5.72;1.92;;;;;;;21.34;54.17;101838.53;10199715;28;20123;-67
2021/08/11 11:35:18;;;;;;;6.38;2.58;;;;;;;22.83;54.22;101845.31;10173907;28;20511;-67
2021/08/11 11:40:17;;;;;;;5.97;2.27;;;;;;;23.33;50.70;101827.72;10120426;28;20043;-67
2021/08/11 11:45:15;;;;;;;7.28;2.00;;;;;;;23.03;50.04;101839.69;10154873;28;20419;-67
2021/08/11 11:50:21;;;;;;;4.60;2.00;;;;;;;22.51;51.36;101830.06;10159717;28;20058;-67
2021/08/11 11:55:30;;;;;;;6.25;2.00;;;;;;;21.50;51.45;101836.53;10180040;28;20054;-66
2021/08/11 12:00:28;;;;;;;4.80;2.05;;;;;;;21.61;52.75;101829.22;10119450;28;20457;-66
2021/08/11 12:05:25;;;;;;;5.35;2.10;;;;;;;21.92;52.88;101838.56;10177760;28;20042;-67
2021/08/11 12:10:25;;;;;;;5.95;1.70;;;;;;;21.48;52.32;101830.53;10140320;28;20425;-66
2021/08/11 12:15:22;;;;;;;5.35;2.53;;;;;;;21.14;53.88;101834.91;10173182;28;20137;-66
2021/08/11 12:20:26;;;;;;;5.35;2.13;;;;;;;21.54;55.61;101826.28;10190929;28;20050;-66
2021/08/11 12:25:28;;;;;;;4.20;1.95;;;;;;;21.82;51.71;101836.38;10168655;28;20124;-65
2021/08/11 12:30:25;;;;;;;4.65;1.85;;;;;;;22.48;50.54;101826.84;10188901;28;20101;-66
2021/08/11 12:35:21;;;;;;;4.97;1.90;;;;;;;23.04;50.78;101832.91;10151968;28;20187;-66
2021/08/11 12:40:26;;;;;;;4.63;1.60;;;;;;;23.38;48.16;101824.59;10184493;28;20100;-65
2021/08/11 12:45:23;;;;;;;6.15;1.80;;;;;;;23.03;48.56;101820.16;10147944;28;20093;-68
2021/08/11 12:50:21;;;;;;;5.60;1.95;;;;;;;22.67;49.44;101819.56;10181824;28;20049;-65
2021/08/11 12:55:31;;;;;;;5.72;1.90;;;;;;;22.02;50.62;101824.03;10174874;28;20081;-69
2021/08/11 13:00:44;;;;;;;5.32;1.95;;;;;;;21.82;51.71;101825.25;10189064;28;20070;-67
2021/08/11 13:05:52;;;;;;;5.20;1.52;;;;;;;21.70;50.47;101817.03;10172801;28;20121;-67
2021/08/11 13:10:56;;;;;;;6.78;2.28;;;;;;;22.09;51.67;101811.41;10163165;28;20459;-67
2021/08/11 13:16:14;;;;;;;4.70;1.67;;;;;;;22.16;51.84;101806.75;10177520;28;20073;-67
2021/08/11 13:21:11;;;;;;;7.15;1.90;;;;;;;22.35;50.62;101819.03;10153361;28;20105;-67
2021/08/11 13:26:08;;;;;;;4.15;2.10;;;;;;;22.49;50.84;101830.47;10158914;28;20042;-68
2021/08/11 13:31:06;;;;;;;3.97;2.08;;;;;;;22.46;51.11;101826.44;10152608;28;20047;-67
2021/08/11 13:36:03;;;;;;;6.72;1.90;;;;;;;22.28;50.39;101819.75;10155087;28;20096;-68
2021/08/11 13:40:59;;;;;;;3.65;1.75;;;;;;;22.15;51.36;101821.06;10180474;28;20077;-68
2021/08/11 13:45:58;;;;;;;5.22;2.17;;;;;;;22.18;51.42;101831.47;10188253;28;20042;-69
2021/08/11 13:50:54;;;;;;;4.22;1.88;;;;;;;22.32;51.58;101820.59;10184007;28;20052;-67
2021/08/11 13:55:51;;;;;;;3.72;2.08;;;;;;;22.32;51.08;101825.38;10170072;28;20074;-67
2021/08/11 14:00:47;;;;;;;4.25;2.05;;;;;;;22.18;51.13;101820.31;10167955;28;20065;-67
2021/08/11 14:05:44;;;;;;;7.50;2.30;;;;;;;21.97;51.84;101827.09;10149415;28;20038;-67
2021/08/11 14:10:41;;;;;;;5.75;2.30;;;;;;;21.94;52.43;101816.72;10163407;28;20092;-67
2021/08/11 14:15:38;;;;;;;4.85;2.05;;;;;;;22.07;52.79;101825.72;10151891;28;20109;-66
2021/08/11 14:20:34;;;;;;;4.50;1.83;;;;;;;22.10;52.23;101824.19;10159660;28;20143;-66
2021/08/11 14:25:31;;;;;;;4.53;2.05;;;;;;;21.93;53.63;101819.88;10136885;28;20047;-66
2021/08/11 14:30:27;;;;;;;5.20;2.17;;;;;;;21.71;52.33;101818.66;10146299;28;20042;-66
2021/08/11 14:35:23;;;;;;;7.53;2.30;;;;;;;21.82;52.27;101820.47;10134786;28;20077;-68
2021/08/11 14:40:20;;;;;;;4.18;2.15;;;;;;;21.98;51.32;101828.75;10168600;28;20050;-66
2021/08/11 14:45:17;;;;;;;6.32;2.78;;;;;;;21.97;51.37;101815.97;10192193;28;20054;-66
2021/08/11 14:50:13;;;;;;;4.78;1.70;;;;;;;21.87;53.04;101821.38;10166631;28;20050;-67
2021/08/11 14:55:10;;;;;;;3.97;1.80;;;;;;;21.95;52.12;101823.88;10190885;28;20054;-66
2021/08/11 15:00:07;;;;;;;4.38;1.70;;;;;;;22.22;52.36;101821.22;10151501;28;20112;-66
2021/08/11 15:05:04;;;;;;;4.40;2.03;;;;;;;22.31;51.08;101824.56;10183958;28;20500;-67
2021/08/11 15:10:01;;;;;;;5.97;1.40;;;;;;;22.22;48.50;101821.22;10143671;28;20061;-67
2021/08/11 15:14:57;;;;;;;3.08;1.40;;;;;;;22.34;47.31;101818.25;10175245;28;20077;-66
2021/08/11 15:19:54;;;;;;;4.43;1.50;;;;;;;22.12;46.55;101816.22;10137472;28;20539;-67
2021/08/11 15:24:51;;;;;;;3.80;1.45;;;;;;;22.38;48.43;101818.31;10173972;28;20066;-67
2021/08/11 15:29:47;;;;;;;4.43;1.67;;;;;;;22.67;47.77;101797.28;10166211;28;20128;-67
2021/08/11 15:34:44;;;;;;;5.95;1.90;;;;;;;22.79;45.89;101799.03;10147675;28;20074;-67
2021/08/11 15:39:40;;;;;;;5.65;1.98;;;;;;;22.78;47.07;101811.38;10153566;28;20056;-67
2021/08/11 15:44:37;;;;;;;4.53;1.98;;;;;;;22.47;46.86;101819.66;10189214;28;20046;-67
2021/08/11 15:49:33;;;;;;;5.22;2.22;;;;;;;22.20;49.10;101817.97;10156975;28;20050;-67
2021/08/11 15:54:30;;;;;;;4.93;2.38;;;;;;;22.00;50.27;101815.25;10187281;28;20101;-67
2021/08/11 15:59:26;;;;;;;3.72;1.92;;;;;;;22.04;50.72;101813.31;10148170;28;20110;-67
2021/08/11 16:04:23;;;;;;;4.80;2.10;;;;;;;21.95;50.84;101812.75;10185771;28;20559;-67
2021/08/11 16:09:21;;;;;;;5.50;2.25;;;;;;;22.02;50.62;101806.50;10156222;28;20101;-66
2021/08/11 16:14:18;;;;;;;6.35;2.40;;;;;;;22.43;50.04;101806.84;10180223;28;20093;-66
2021/08/11 16:19:14;;;;;;;8.05;2.60;;;;;;;22.87;49.30;101815.50;10190323;28;20084;-66
2021/08/11 16:24:11;;;;;;;6.43;2.20;;;;;;;23.23;46.76;101821.63;10167198;28;20535;-67
2021/08/11 16:29:07;;;;;;;5.30;2.10;;;;;;;23.93;46.91;101817.28;10163388;28;20077;-66
2021/08/11 16:34:04;;;;;;;6.07;2.80;;;;;;;24.28;44.19;101826.41;10180678;28;20092;-67
2021/08/11 16:39:00;;;;;;;5.18;2.08;;;;;;;25.42;41.70;101817.22;10165589;28;20812;-66
2021/08/11 16:43:57;;;;;;;6.35;3.60;;;;;;;25.74;41.40;101815.31;10177550;28;20670;-68
2021/08/11 16:48:53;;;;;;;5.65;3.00;;;;;;;25.96;40.41;101821.00;10167478;28;20054;-68
2021/08/11 16:53:50;;;;;;;5.80;3.40;;;;;;;26.58;39.80;101811.44;10160701;28;20041;-67
2021/08/11 16:58:46;;;;;;;5.30;2.25;;;;;;;26.48;40.25;101817.81;10169522;28;20050;-67
2021/08/11 17:03:42;;;;;;;5.20;2.60;;;;;;;26.17;41.02;101821.03;10175994;28;20125;-67
2021/08/11 17:08:39;;;;;;;5.13;1.90;;;;;;;25.06;43.21;101825.41;10179935;28;20181;-67
2021/08/11 17:13:36;;;;;;;5.40;2.83;;;;;;;24.38;43.79;101820.09;10186572;28;20070;-67
2021/08/11 17:18:33;;;;;;;8.27;2.75;;;;;;;24.06;45.65;101819.81;10178043;28;20527;-67
2021/08/11 17:23:29;;;;;;;5.88;2.60;;;;;;;23.65;46.10;101822.53;10179712;28;20070;-67
2021/08/11 17:28:26;;;;;;;5.18;2.38;;;;;;;23.36;47.06;101819.41;10173999;28;20041;-67
2021/08/11 17:33:22;;;;;;;4.35;2.65;;;;;;;23.13;47.75;101818.69;10151625;28;20544;-67
2021/08/11 17:38:19;;;;;;;5.47;2.65;;;;;;;22.89;48.60;101824.31;10161913;28;20046;-67
2021/08/11 17:43:15;;;;;;;7.30;2.28;;;;;;;22.72;49.76;101827.63;10147360;28;20092;-68
2021/08/11 17:48:12;;;;;;;6.25;2.40;;;;;;;22.60;51.55;101814.69;10167783;28;20786;-68
2021/08/11 17:53:08;;;;;;;5.07;2.88;;;;;;;22.50;50.07;101820.09;10181402;28;20078;-67
2021/08/11 17:58:05;;;;;;;8.10;4.32;;;;;;;22.31;50.85;101816.22;10175154;28;20050;-68
2021/08/11 18:03:01;;;;;;;8.57;4.40;;;;;;;22.20;52.47;101817.97;10183108;28;20397;-67
2021/08/11 18:07:58;;;;;;;8.57;4.10;;;;;;;22.04;52.06;101821.66;10136183;28;20054;-68
2021/08/11 18:12:55;;;;;;;6.00;3.58;;;;;;;21.97;52.95;101829.09;10187449;28;20396;-66
2021/08/11 18:17:52;;;;;;;8.30;4.18;;;;;;;21.89;52.68;101819.81;10163609;28;20054;-65
2021/08/11 18:22:49;;;;;;;5.95;3.35;;;;;;;21.74;54.07;101829.84;10179258;28;20073;-67
2021/08/11 18:27:47;;;;;;;6.00;2.95;;;;;;;21.60;55.18;101835.94;10162216;28;20050;-66
2021/08/11 18:32:44;;;;;;;8.15;3.05;;;;;;;21.53;56.06;101838.56;10146088;28;20492;-66
2021/08/11 18:37:41;;;;;;;4.72;2.65;;;;;;;21.44;55.46;101837.97;10168258;28;20077;-69
2021/08/11 18:42:38;;;;;;;4.75;2.35;;;;;;;21.30;56.70;101855.16;10136488;28;20049;-67
2021/08/11 18:47:35;;;;;;;5.97;2.78;;;;;;;21.16;56.91;101861.19;10166232;28;20108;-65
2021/08/11 18:52:31;;;;;;;6.43;2.97;;;;;;;21.04;57.48;101852.97;10128060;28;20559;-66
2021/08/11 18:57:28;;;;;;;8.40;3.13;;;;;;;20.89;59.45;101860.19;10149594;28;20074;-67
2021/08/11 19:02:24;;;;;;;5.72;3.05;;;;;;;20.71;60.36;101873.66;10201059;28;20045;-66
2021/08/11 19:07:21;;;;;;;4.65;2.80;;;;;;;20.58;61.97;101883.22;10160148;28;20081;-65
2021/08/11 19:12:18;;;;;;;7.75;3.67;;;;;;;20.42;62.28;101883.19;10197008;28;20555;-66
2021/08/11 19:17:14;;;;;;;5.28;2.92;;;;;;;20.26;63.05;101880.41;10134954;28;20113;-66
2021/08/11 19:22:11;;;;;;;6.68;3.08;;;;;;;20.15;64.54;101890.44;10189759;28;20041;-66
2021/08/11 19:27:08;;;;;;;6.43;3.72;;;;;;;20.02;65.10;101894.41;10155595;28;20046;-66
2021/08/11 19:32:07;;;;;;;6.57;4.15;;;;;;;19.89;64.92;101900.03;10155628;28;20464;-66
2021/08/11 19:37:04;;;;;;;6.50;4.22;;;;;;;19.75;66.12;101905.97;10151896;28;20046;-65
2021/08/11 19:42:00;;;;;;;10.68;4.50;;;;;;;19.63;66.47;101902.38;10137760;28;20509;-67
2021/08/11 19:46:56;;;;;;;8.13;5.05;;;;;;;19.51;67.51;101901.25;10145396;28;20137;-66
2021/08/11 19:51:53;;;;;;;8.48;4.57;;;;;;;19.39;67.04;101914.34;10177934;28;20104;-67
2021/08/11 19:56:49;;;;;;;11.45;5.78;;;;;;;19.29;67.70;101910.91;10149597;28;20074;-66
2021/08/11 20:01:46;;;;;;;11.00;5.78;;;;;;;19.23;67.87;101922.56;10173202;28;20568;-66
2021/08/11 20:06:43;;;;;;;9.30;5.68;;;;;;;19.11;68.55;101924.19;10191637;28;20498;-67
2021/08/11 20:11:40;;;;;;;12.27;6.22;;;;;;;19.05;69.11;101928.34;10174516;28;20053;-66
2021/08/11 20:16:37;;;;;;;11.52;6.15;;;;;;;18.95;69.44;101934.34;10177396;28;20069;-67
2021/08/11 20:21:34;;;;;;;10.20;6.30;;;;;;;18.85;69.73;101932.84;10176139;28;20130;-67
2021/08/11 20:26:31;;;;;;;12.10;6.50;;;;;;;18.79;70.43;101941.72;10152635;28;20080;-67
2021/08/11 20:31:28;;;;;;;11.13;7.40;;;;;;;18.70;70.88;101939.00;10156840;28;20105;-66
2021/08/11 20:36:24;;;;;;;12.82;6.63;;;;;;;18.62;71.14;101949.03;10152825;28;20121;-66
2021/08/11 20:41:21;;;;;;;9.18;6.43;;;;;;;18.56;71.54;101953.19;10166687;28;20096;-66
2021/08/11 20:46:17;;;;;;;12.77;6.90;;;;;;;18.50;71.98;101949.03;10187247;28;20073;-67
2021/08/11 20:51:14;;;;;;;12.57;7.53;;;;;;;18.43;72.33;101957.88;10159154;28;20069;-67
2021/08/11 20:56:11;;;;;;;13.68;7.65;;;;;;;18.40;72.40;101952.22;10185753;28;20104;-67
2021/08/11 21:01:08;;;;;;;14.07;7.97;;;;;;;18.37;72.71;101958.44;10154038;28;20091;-67
2021/08/11 21:06:04;;;;;;;13.05;8.07;;;;;;;18.32;73.52;101953.13;10175114;28;20094;-65
2021/08/11 21:11:01;;;;;;;13.18;7.82;;;;;;;18.24;73.61;101950.09;10139435;28;20046;-65
2021/08/11 21:15:58;;;;;;;12.85;7.97;;;;;;;18.16;73.80;101950.97;10178236;28;20091;-67
2021/08/11 21:20:55;;;;;;;14.68;7.85;;;;;;;18.10;74.22;101949.56;10187398;28;20050;-67
2021/08/11 21:25:51;;;;;;;13.95;7.82;;;;;;;18.03;74.35;101943.75;10163860;28;20070;-66
2021/08/11 21:30:48;;;;;;;9.95;7.40;;;;;;;17.96;74.71;101943.50;10162816;28;20092;-67
2021/08/11 21:35:44;;;;;;;10.43;7.47;;;;;;;17.90;74.92;101950.41;10163764;28;20086;-66
2021/08/11 21:40:41;;;;;;;15.07;8.70;;;;;;;17.85;75.32;101948.66;10160179;28;20504;-67
2021/08/11 21:45:37;;;;;;;12.98;8.40;;;;;;;17.80;75.79;101949.63;10160473;28;20504;-67
2021/08/11 21:50:34;;;;;;;10.55;7.18;;;;;;;17.77;75.61;101958.59;10144341;28;20406;-66
2021/08/11 21:55:30;;;;;;;11.27;7.45;;;;;;;17.72;75.72;101950.50;10176202;28;20046;-67
2021/08/11 22:00:26;;;;;;;14.23;7.90;;;;;;;17.65;76.27;101950.22;10153310;28;20053;-65
2021/08/11 22:05:23;;;;;;;12.35;8.10;;;;;;;17.58;76.54;101947.19;10153196;28;20046;-67
2021/08/11 22:10:20;;;;;;;13.10;8.35;;;;;;;17.54;76.78;101949.78;10138244;28;20047;-67
2021/08/11 22:15:16;;;;;;;14.68;8.35;;;;;;;17.48;76.76;101950.34;10180546;28;20065;-67
2021/08/11 22:20:13;;;;;;;12.70;8.88;;;;;;;17.43;76.94;101954.13;10129574;28;20078;-66
2021/08/11 22:25:10;;;;;;;12.68;8.25;;;;;;;17.37;77.14;101956.25;10165144;28;20106;-66
2021/08/11 22:30:07;;;;;;;13.23;8.95;;;;;;;17.32;77.38;101959.22;10191354;28;20050;-67
2021/08/11 22:35:05;;;;;;;12.75;9.32;;;;;;;17.28;77.60;101963.78;10178958;28;20053;-67
2021/08/11 22:40:04;;;;;;;11.48;9.02;;;;;;;17.24;77.61;101962.81;10170182;28;20050;-66